Liberal Mid-America Regional Airport
KLBL : now visible

Aeroporto :











RITROVATECI SU...

 
LOGIN :

Iscrizione | Disclaimer

   EN    FR    IT 

 









Sommario :    VFR   VFR Marginale   IFR   IFR Intensivo   IFR Molto Intensivo
Visibilità : 
Base nubi : 
>= 8 km
>= 3000ft
5 / 8 km
1000 / 3000 ft
1500m / 5 km
500 / 1000 ft
800 / 1500m
200 / 500 ft
< 800m
< 200 ft
Simboli :   Temporali  Nebbia  Neve Forte  Precipitazioni Forti  Vento > 20 kt







- Altitudine del aeroporto : 2885 ft
- Codice IATA : LBL


KLBL - Liberal Mid-America Regional

ULTIMO METAR :
  • 250356Z AUTO 14006KT 10SM CLR 24/19 A2996 RMK AO2 WSHFT 0249 LTG DSNT N RAE18 SLP114 P0000 T02440194

METARs OBSOLETI :
  • 250309Z AUTO 11011G18KT 10SM -RA FEW060 BKN110 24/19 A2993 RMK AO2 WSHFT 0249 P0000
  • 250256Z AUTO 09012KT 10SM -RA FEW090 SCT110 25/19 A2998 RMK AO2 LTG DSNT NE RAB55 SLP121 P0000 60000 T02500194 53012
  • 250156Z AUTO 14010KT 10SM CLR 25/19 A2992 RMK AO2 SLP103 T02500194

TAF KLBL
Valido dal 25 a 04 ore il 26 a 00 ore UTC


250339Z 2504/2524 11011G18KT P6SM VCTS BKN090CB
FM250500 10010KT P6SM BKN200
Nessun NOTAM noto per questo aeroporto.



MetMap, La meteo Aeronautica in un colpo d'occhio ! - Copyright ORBIFLY Dicembre 2007 - Disclaimer

ORBIFLY MET'MAP TEAM :

Programmazione e sviluppo : Alexandra Zaïnal
Concezione e sviluppo : Baudouin d'Aumeries
Co-Programmazione e sviluppo : Marc-Olivier Méhu
Supporto tecnico e logistico : Manuel Goepfert
Aiuto per la traduzione : Arnaldo La Scala

Contatto : metmap@orbifly.com




FONTI E CREDITI :

   NOAA       Earth
Advisory